Time;durP1;ratioP1;P1;durP2;ratioP2;P2;SDS_P1;SDS_P2;PMS_P1;PMS_P2;Temp;Humidity;BMP_temperature;BMP_pressure;BME280_temperature;BME280_humidity;BME280_pressure;Samples;Min_cycle;Max_cycle;Signal;HPM_P1;HPM_P2
2023/02/07 00:00:23;;;;;;;7.13;5.13;;;0.40;99.90;;;;;;5072495;28;20209;-62
2023/02/07 00:02:50;;;;;;;7.57;5.23;;;0.30;99.90;;;;;;5072657;28;20223;-62
2023/02/07 00:05:17;;;;;;;7.03;4.80;;;0.30;99.90;;;;;;5072809;28;20225;-62
2023/02/07 00:07:44;;;;;;;7.37;5.70;;;0.20;99.90;;;;;;5071456;28;20704;-63
2023/02/07 00:10:12;;;;;;;7.03;5.13;;;0.90;99.90;;;;;;5072194;28;20550;-62
2023/02/07 00:12:39;;;;;;;6.80;5.23;;;0.20;99.90;;;;;;5072178;28;20208;-62
2023/02/07 00:15:07;;;;;;;8.27;5.60;;;0.10;99.90;;;;;;5072091;28;20810;-62
2023/02/07 00:17:34;;;;;;;8.17;5.83;;;0.10;99.90;;;;;;5071588;28;20235;-62
2023/02/07 00:20:01;;;;;;;8.37;5.37;;;0.00;99.90;;;;;;5071738;28;20526;-62
2023/02/07 00:22:28;;;;;;;7.80;6.00;;;0.00;99.90;;;;;;5071221;28;20205;-62
2023/02/07 00:24:54;;;;;;;8.90;5.87;;;0.00;99.90;;;;;;5071123;28;20229;-62
2023/02/07 00:27:22;;;;;;;8.40;6.20;;;0.00;99.90;;;;;;5071156;28;20548;-62
2023/02/07 00:29:49;;;;;;;10.33;7.10;;;0.10;99.90;;;;;;5070893;28;20208;-62
2023/02/07 00:32:16;;;;;;;7.80;6.03;;;0.20;99.90;;;;;;5071401;28;20217;-62
2023/02/07 00:34:45;;;;;;;9.33;6.47;;;0.20;99.90;;;;;;5071091;28;20237;-62
2023/02/07 00:37:12;;;;;;;9.20;6.43;;;0.20;99.90;;;;;;5071076;28;20228;-61
2023/02/07 00:39:38;;;;;;;8.10;6.13;;;0.20;99.90;;;;;;5070902;28;20212;-64
2023/02/07 00:42:06;;;;;;;9.93;6.50;;;0.10;99.90;;;;;;5071114;28;20564;-62
2023/02/07 00:44:34;;;;;;;7.93;6.20;;;0.00;99.90;;;;;;5070863;28;20231;-63
2023/02/07 00:47:01;;;;;;;10.03;7.17;;;-0.10;99.90;;;;;;5070966;28;20660;-62
2023/02/07 00:49:27;;;;;;;9.90;6.33;;;-0.10;99.90;;;;;;5070771;28;20201;-62
2023/02/07 00:51:54;;;;;;;10.23;7.23;;;-0.20;99.90;;;;;;5071219;28;20212;-62
2023/02/07 00:54:21;;;;;;;10.30;6.67;;;-0.30;99.90;;;;;;5071247;28;20330;-62
2023/02/07 00:56:47;;;;;;;10.57;6.50;;;-0.30;99.90;;;;;;5070810;28;20228;-62
2023/02/07 00:59:14;;;;;;;11.40;7.37;;;-0.40;99.90;;;;;;5070728;28;20250;-62
2023/02/07 01:01:42;;;;;;;11.67;7.13;;;-0.40;99.90;;;;;;5071052;28;20200;-64
2023/02/07 01:04:09;;;;;;;9.83;7.20;;;-0.50;99.90;;;;;;5070831;28;20350;-65
2023/02/07 01:06:36;;;;;;;9.77;7.07;;;-0.50;99.90;;;;;;5071084;28;20200;-62
2023/02/07 01:09:05;;;;;;;10.17;7.67;;;-0.60;99.90;;;;;;5070571;28;20209;-62
2023/02/07 01:11:32;;;;;;;11.13;7.63;;;-0.60;99.90;;;;;;5070758;28;20209;-63
2023/02/07 01:13:59;;;;;;;12.60;8.17;;;-0.60;99.90;;;;;;5070864;28;20240;-62
2023/02/07 01:16:28;;;;;;;11.50;6.90;;;-0.70;99.90;;;;;;5070785;28;20247;-62
2023/02/07 01:18:57;;;;;;;11.70;8.13;;;-0.70;99.90;;;;;;5070688;28;20208;-62
2023/02/07 01:21:26;;;;;;;12.87;8.27;;;-0.70;99.90;;;;;;5074497;28;20562;-63
2023/02/07 01:23:55;;;;;;;11.10;8.30;;;-0.70;99.90;;;;;;5074386;28;20316;-62
2023/02/07 01:26:22;;;;;;;13.63;8.70;;;-0.60;99.90;;;;;;5074362;28;20212;-63
2023/02/07 01:28:49;;;;;;;14.00;8.13;;;-0.60;99.90;;;;;;5074252;28;20551;-62
2023/02/07 01:31:16;;;;;;;10.80;8.43;;;-0.60;99.90;;;;;;5074436;28;20212;-63
2023/02/07 01:33:42;;;;;;;12.17;8.23;;;-0.60;99.90;;;;;;5074400;28;20251;-62
2023/02/07 01:36:13;;;;;;;10.30;7.60;;;-0.60;99.90;;;;;;5074149;28;20775;-62
2023/02/07 01:38:40;;;;;;;10.53;7.80;;;-0.60;99.90;;;;;;5074013;28;20586;-64
2023/02/07 01:41:07;;;;;;;11.77;7.77;;;-0.60;99.90;;;;;;5074151;28;20212;-62
2023/02/07 01:43:34;;;;;;;10.73;7.50;;;-0.70;99.90;;;;;;5074443;28;20660;-62
2023/02/07 01:46:01;;;;;;;11.93;8.07;;;-0.70;99.90;;;;;;5074170;28;20687;-64
2023/02/07 01:48:32;;;;;;;11.50;8.63;;;-0.80;99.90;;;;;;5073941;28;20626;-62
2023/02/07 01:51:02;;;;;;;12.50;7.20;;;-0.80;99.90;;;;;;5074074;28;20223;-62
2023/02/07 01:53:33;;;;;;;9.93;7.27;;;-0.90;99.90;;;;;;5074176;28;20205;-62
2023/02/07 01:56:05;;;;;;;9.63;7.40;;;-0.90;99.90;;;;;;5074157;28;20208;-62
2023/02/07 01:58:33;;;;;;;11.13;7.10;;;-0.90;99.90;;;;;;5073803;28;20416;-62
2023/02/07 02:01:03;;;;;;;11.60;7.80;;;-0.70;99.90;;;;;;5073865;28;20209;-62
2023/02/07 02:03:30;;;;;;;14.17;7.70;;;-1.00;99.90;;;;;;5073791;28;20278;-62
2023/02/07 02:05:57;;;;;;;11.83;7.30;;;-1.00;99.90;;;;;;5073835;28;20208;-64
2023/02/07 02:08:24;;;;;;;9.47;7.47;;;-1.10;99.90;;;;;;5073752;28;20629;-62
2023/02/07 02:11:10;;;;;;;11.67;7.80;;;-1.00;99.90;;;;;;5073862;28;20596;-62
2023/02/07 02:13:43;;;;;;;11.43;8.17;;;-1.00;99.90;;;;;;5073807;28;20225;-62
2023/02/07 02:16:18;;;;;;;10.73;7.70;;;-1.10;99.90;;;;;;5073562;28;20215;-61
2023/02/07 02:18:57;;;;;;;10.67;8.47;;;-1.20;99.90;;;;;;5073626;28;20204;-62
2023/02/07 02:22:03;;;;;;;11.97;8.07;;;-1.20;99.90;;;;;;5073708;28;20209;-64
2023/02/07 02:24:59;;;;;;;12.70;8.23;;;-1.20;99.90;;;;;;5071620;28;20224;-62
2023/02/07 02:27:40;;;;;;;11.33;8.33;;;-1.30;99.90;;;;;;5073764;28;20197;-62
2023/02/07 02:30:39;;;;;;;10.53;8.03;;;-1.30;99.90;;;;;;5073651;28;20197;-62
2023/02/07 02:33:28;;;;;;;11.27;8.07;;;-1.30;99.90;;;;;;5072975;28;20205;-63
2023/02/07 02:36:03;;;;;;;10.10;8.10;;;-1.40;99.90;;;;;;5114889;22;20285;-57
2023/02/07 02:38:36;;;;;;;12.50;7.73;;;-1.40;99.90;;;;;;5093582;28;20586;-59
2023/02/07 02:41:10;;;;;;;12.00;9.40;;;-1.40;99.90;;;;;;5093719;28;20209;-59
2023/02/07 02:43:43;;;;;;;12.00;8.80;;;-1.40;99.90;;;;;;5093665;28;20200;-59
2023/02/07 02:46:15;;;;;;;12.63;8.50;;;-1.40;99.90;;;;;;5073619;28;20201;-58
2023/02/07 02:48:44;;;;;;;12.50;8.43;;;-1.40;99.90;;;;;;5073231;28;20254;-59
2023/02/07 02:51:12;;;;;;;12.93;9.00;;;-1.50;99.90;;;;;;5073515;28;20216;-59
2023/02/07 02:53:38;;;;;;;11.87;8.93;;;-1.50;99.90;;;;;;5073448;28;20212;-59
2023/02/07 02:56:34;;;;;;;13.57;8.83;;;-1.50;99.90;;;;;;5073213;28;20307;-58
2023/02/07 02:59:16;;;;;;;10.93;7.90;;;-1.50;99.90;;;;;;5072784;28;20209;-58
2023/02/07 03:01:54;;;;;;;12.53;8.53;;;-1.50;99.90;;;;;;5073056;28;20212;-59
2023/02/07 03:04:35;;;;;;;13.23;9.10;;;-1.60;99.90;;;;;;5072922;28;20232;-59
2023/02/07 03:07:24;;;;;;;11.83;8.80;;;-1.50;99.90;;;;;;5073276;28;20208;-59
2023/02/07 03:09:58;;;;;;;13.57;9.30;;;-1.50;99.90;;;;;;5073074;28;20639;-58
2023/02/07 03:12:27;;;;;;;11.10;8.80;;;-1.50;99.90;;;;;;5072688;28;20208;-59
2023/02/07 03:15:04;;;;;;;11.90;8.67;;;-1.50;99.90;;;;;;5073013;28;20229;-59
2023/02/07 03:17:35;;;;;;;12.27;7.70;;;-1.50;99.90;;;;;;5072789;28;20235;-59
2023/02/07 03:20:09;;;;;;;11.73;8.00;;;-1.50;99.90;;;;;;5072626;28;20271;-59
2023/02/07 03:22:37;;;;;;;12.73;8.57;;;-1.40;99.90;;;;;;5072751;28;20246;-59
2023/02/07 03:25:06;;;;;;;14.10;9.10;;;-1.50;99.90;;;;;;5072381;28;20232;-59
2023/02/07 03:27:34;;;;;;;11.87;8.17;;;-1.60;99.90;;;;;;5072725;28;20612;-59
2023/02/07 03:30:04;;;;;;;11.63;8.73;;;-1.50;99.90;;;;;;5072364;28;20684;-59
2023/02/07 03:32:35;;;;;;;11.03;7.80;;;-1.50;99.90;;;;;;5072736;28;20211;-59
2023/02/07 03:35:08;;;;;;;12.27;8.67;;;-1.50;99.90;;;;;;5072551;28;20235;-59
2023/02/07 03:37:37;;;;;;;10.77;8.27;;;-1.50;99.90;;;;;;5072209;28;20221;-59
2023/02/07 03:40:06;;;;;;;13.83;9.07;;;-1.50;99.90;;;;;;5072351;28;20212;-59
2023/02/07 03:42:36;;;;;;;10.83;8.30;;;-1.50;99.90;;;;;;5072349;28;20246;-59
2023/02/07 03:45:05;;;;;;;11.53;8.23;;;-1.50;99.90;;;;;;5072343;28;20278;-59
2023/02/07 03:47:32;;;;;;;11.70;8.47;;;-1.50;99.90;;;;;;5072826;28;20201;-59
2023/02/07 03:49:59;;;;;;;12.40;8.47;;;-1.50;99.90;;;;;;5071782;28;20489;-58
2023/02/07 03:52:27;;;;;;;13.23;8.73;;;-1.40;99.90;;;;;;5072261;28;20610;-58
2023/02/07 03:54:53;;;;;;;11.90;8.30;;;-1.50;99.90;;;;;;5072453;28;20236;-58
2023/02/07 03:57:20;;;;;;;11.10;8.17;;;-1.40;99.90;;;;;;5072390;28;20235;-58
2023/02/07 03:59:47;;;;;;;11.50;8.10;;;-1.30;99.90;;;;;;5072344;28;20209;-58
2023/02/07 04:02:14;;;;;;;14.30;8.57;;;-1.20;99.90;;;;;;5072114;28;20234;-58
2023/02/07 04:04:40;;;;;;;12.80;8.40;;;-1.20;99.90;;;;;;5071991;28;20225;-58
2023/02/07 04:07:07;;;;;;;10.83;8.27;;;-1.10;99.90;;;;;;5072048;28;20235;-58
2023/02/07 04:09:35;;;;;;;10.63;8.27;;;-1.10;99.90;;;;;;5071853;28;20201;-58
2023/02/07 04:12:03;;;;;;;12.13;9.13;;;-1.00;99.90;;;;;;5071916;28;20212;-59
2023/02/07 04:14:29;;;;;;;12.13;8.73;;;-1.10;99.90;;;;;;5071993;28;20293;-58
2023/02/07 04:16:56;;;;;;;26.47;17.90;;;-1.00;99.90;;;;;;5071561;28;20291;-59
2023/02/07 04:19:23;;;;;;;39.37;27.17;;;-1.00;99.90;;;;;;5071411;28;20212;-58
2023/02/07 04:21:50;;;;;;;11.37;8.90;;;-1.10;99.90;;;;;;5071726;28;20247;-58
2023/02/07 04:24:17;;;;;;;13.67;9.30;;;-1.10;99.90;;;;;;5071655;28;20235;-58
2023/02/07 04:26:45;;;;;;;13.47;9.17;;;-1.20;99.90;;;;;;5071776;28;20590;-58
2023/02/07 04:29:11;;;;;;;12.57;8.90;;;-1.10;99.90;;;;;;5071635;28;20216;-58
2023/02/07 04:31:39;;;;;;;11.60;9.07;;;-1.00;99.90;;;;;;5071571;28;20205;-58
2023/02/07 04:34:05;;;;;;;13.30;9.30;;;-0.90;99.90;;;;;;5071699;28;20221;-58
2023/02/07 04:36:32;;;;;;;15.67;9.60;;;-0.90;99.90;;;;;;5071600;28;20216;-58
2023/02/07 04:38:59;;;;;;;12.27;9.20;;;-0.80;99.90;;;;;;5071039;28;20707;-58
2023/02/07 04:41:25;;;;;;;11.23;8.50;;;-0.80;99.90;;;;;;5071509;28;20208;-58
2023/02/07 04:43:53;;;;;;;12.50;8.97;;;-1.00;99.90;;;;;;5071738;28;20216;-58
2023/02/07 04:46:20;;;;;;;13.63;8.97;;;-1.00;99.90;;;;;;5071346;28;20213;-58
2023/02/07 04:48:48;;;;;;;11.73;9.33;;;-0.90;99.90;;;;;;5071333;28;20204;-58
2023/02/07 04:51:15;;;;;;;12.57;8.70;;;-0.90;99.90;;;;;;5071642;28;20261;-58
2023/02/07 04:53:42;;;;;;;14.40;9.10;;;-0.80;99.90;;;;;;5071680;28;20606;-58
2023/02/07 04:56:09;;;;;;;11.80;9.07;;;-0.80;99.90;;;;;;5075169;28;20208;-58
2023/02/07 04:58:36;;;;;;;10.57;7.77;;;-0.80;99.90;;;;;;5075260;28;20354;-58
2023/02/07 05:01:04;;;;;;;11.23;8.23;;;-0.80;99.90;;;;;;5075376;28;20201;-58
2023/02/07 05:03:30;;;;;;;12.93;8.60;;;-0.90;99.90;;;;;;5075822;28;20201;-57
2023/02/07 05:05:57;;;;;;;13.63;8.67;;;-0.90;99.90;;;;;;5075458;28;20687;-57
2023/02/07 05:08:24;;;;;;;14.43;9.43;;;-0.90;99.90;;;;;;5074976;28;20288;-57
2023/02/07 05:10:53;;;;;;;12.33;8.90;;;-1.00;99.90;;;;;;5075084;28;20833;-57
2023/02/07 05:13:20;;;;;;;11.17;8.50;;;-1.00;99.90;;;;;;5075029;28;20660;-57
2023/02/07 05:15:46;;;;;;;11.23;7.27;;;-1.00;99.90;;;;;;5075138;28;20224;-57
2023/02/07 05:18:15;;;;;;;10.10;7.63;;;-1.10;99.90;;;;;;5074672;28;20224;-57
2023/02/07 05:20:41;;;;;;;13.10;8.60;;;-1.10;99.90;;;;;;5075109;28;20254;-57
2023/02/07 05:23:08;;;;;;;9.60;7.57;;;-1.20;99.90;;;;;;5074823;28;20211;-57
2023/02/07 05:25:35;;;;;;;10.03;7.17;;;-1.20;99.90;;;;;;5074737;28;20727;-57
2023/02/07 05:28:02;;;;;;;11.47;7.93;;;-1.20;99.90;;;;;;5074485;28;20575;-57
2023/02/07 05:30:29;;;;;;;10.87;7.97;;;-1.10;99.90;;;;;;5075111;28;20201;-56
2023/02/07 05:33:04;;;;;;;12.37;8.67;;;-1.10;99.90;;;;;;5074862;28;20263;-58
2023/02/07 05:35:33;;;;;;;13.57;8.13;;;-1.10;99.90;;;;;;5074527;28;20337;-57
2023/02/07 05:38:00;;;;;;;16.03;9.17;;;-1.10;99.90;;;;;;5074335;28;20225;-57
2023/02/07 05:40:27;;;;;;;11.07;8.47;;;-1.10;99.90;;;;;;5074161;28;20216;-57
2023/02/07 05:42:54;;;;;;;13.43;8.50;;;-1.10;99.90;;;;;;5074505;28;20212;-59
2023/02/07 05:45:21;;;;;;;11.83;8.27;;;-1.10;99.90;;;;;;5074408;28;20229;-57
2023/02/07 05:47:48;;;;;;;12.50;7.97;;;-1.10;99.90;;;;;;5074427;28;20205;-58
2023/02/07 05:50:15;;;;;;;13.10;7.80;;;-1.20;99.90;;;;;;5073988;28;20212;-58
2023/02/07 05:52:43;;;;;;;11.80;7.70;;;-1.10;99.90;;;;;;5074283;28;20402;-58
2023/02/07 05:55:11;;;;;;;19.37;14.03;;;-1.10;99.90;;;;;;5073935;28;20303;-58
2023/02/07 05:57:39;;;;;;;16.73;11.77;;;-1.10;99.90;;;;;;5074174;28;20232;-58
2023/02/07 06:00:07;;;;;;;14.17;9.67;;;-1.10;99.90;;;;;;5073965;28;20204;-57
2023/02/07 06:02:33;;;;;;;15.13;9.37;;;-1.10;99.90;;;;;;5074079;28;20231;-57
2023/02/07 06:05:00;;;;;;;12.97;8.90;;;-1.10;99.90;;;;;;5073589;28;20769;-58
2023/02/07 06:07:27;;;;;;;11.93;8.93;;;-1.10;99.90;;;;;;5073695;28;20530;-58
2023/02/07 06:09:55;;;;;;;22.23;13.33;;;-1.10;99.90;;;;;;5073679;28;20205;-58
2023/02/07 06:12:22;;;;;;;14.67;10.10;;;-1.10;99.90;;;;;;5074283;28;20205;-57
2023/02/07 06:14:48;;;;;;;17.37;10.97;;;-1.10;99.90;;;;;;5074081;28;20233;-58
2023/02/07 06:17:15;;;;;;;13.60;9.30;;;-1.10;99.90;;;;;;5074331;28;20205;-57
2023/02/07 06:19:42;;;;;;;16.50;9.33;;;-1.20;99.90;;;;;;5073802;28;20264;-57
2023/02/07 06:22:09;;;;;;;11.80;8.70;;;-1.20;99.90;;;;;;5074091;28;20742;-57
2023/02/07 06:24:36;;;;;;;11.50;8.60;;;-1.20;99.90;;;;;;5074215;28;20729;-57
2023/02/07 06:27:04;;;;;;;13.93;8.80;;;-1.20;99.90;;;;;;5076729;28;20205;-57
2023/02/07 06:29:31;;;;;;;12.77;9.23;;;-1.20;99.90;;;;;;5077307;28;20518;-56
2023/02/07 06:31:58;;;;;;;25.10;14.03;;;-1.30;99.90;;;;;;5076836;28;20278;-57
2023/02/07 06:34:24;;;;;;;12.00;8.70;;;-1.30;99.90;;;;;;5075284;28;20255;-57
2023/02/07 06:36:51;;;;;;;15.33;9.87;;;-1.30;99.90;;;;;;5075131;28;20208;-59
2023/02/07 06:39:18;;;;;;;12.83;9.33;;;-1.30;99.90;;;;;;5074569;28;20711;-57
2023/02/07 06:41:45;;;;;;;14.23;9.00;;;-1.30;99.90;;;;;;5073737;28;20208;-56
2023/02/07 06:44:13;;;;;;;14.03;10.20;;;-1.30;99.90;;;;;;5073416;28;20225;-58
2023/02/07 06:46:40;;;;;;;15.30;10.43;;;-1.30;99.90;;;;;;5073511;28;20212;-58
2023/02/07 06:49:06;;;;;;;19.57;11.30;;;-1.30;99.90;;;;;;5073052;28;20580;-57
2023/02/07 06:51:33;;;;;;;15.50;11.60;;;-1.30;99.90;;;;;;5073352;28;20656;-56
2023/02/07 06:54:02;;;;;;;17.07;11.07;;;-1.20;99.90;;;;;;5073564;28;20318;-57
2023/02/07 06:56:28;;;;;;;16.83;10.57;;;-1.20;99.90;;;;;;5073291;28;20220;-57
2023/02/07 06:58:55;;;;;;;17.83;10.33;;;-1.20;99.90;;;;;;5072852;28;20225;-56
2023/02/07 07:01:23;;;;;;;18.43;11.37;;;-1.10;99.90;;;;;;5072951;28;20208;-57
2023/02/07 07:03:50;;;;;;;18.77;11.93;;;-1.10;99.90;;;;;;5072689;28;20317;-58
2023/02/07 07:06:17;;;;;;;18.20;11.07;;;-1.10;99.90;;;;;;5072821;28;20718;-57
2023/02/07 07:08:44;;;;;;;19.07;12.10;;;-1.10;99.90;;;;;;5072699;28;20208;-56
2023/02/07 07:11:10;;;;;;;12.93;9.03;;;-1.00;99.90;;;;;;5072846;28;20212;-57
2023/02/07 07:13:37;;;;;;;18.17;9.10;;;-1.00;99.90;;;;;;5072816;28;20212;-57
2023/02/07 07:16:05;;;;;;;13.80;8.80;;;-1.10;99.90;;;;;;5072325;28;20320;-57
2023/02/07 07:18:33;;;;;;;16.03;10.60;;;-1.00;99.90;;;;;;5071955;28;20242;-59
2023/02/07 07:20:59;;;;;;;16.73;8.70;;;-1.00;99.90;;;;;;5072998;28;20213;-59
2023/02/07 07:23:26;;;;;;;12.83;8.80;;;-0.90;99.90;;;;;;5072907;28;20205;-57
2023/02/07 07:25:53;;;;;;;11.43;7.97;;;-0.70;99.90;;;;;;5072274;28;20240;-57
2023/02/07 07:28:20;;;;;;;11.40;8.13;;;-0.50;99.90;;;;;;5071908;28;20205;-56
2023/02/07 07:30:47;;;;;;;11.00;7.33;;;-0.40;99.90;;;;;;5071893;28;20205;-57
2023/02/07 07:33:13;;;;;;;11.10;7.50;;;-0.30;99.90;;;;;;5072379;28;20218;-56
2023/02/07 07:35:42;;;;;;;12.13;8.27;;;-0.30;99.90;;;;;;5071703;28;20240;-57
2023/02/07 07:38:08;;;;;;;18.23;12.07;;;-0.20;99.90;;;;;;5071805;28;20267;-57
2023/02/07 07:40:35;;;;;;;9.43;7.13;;;-0.60;99.90;;;;;;5072100;28;20605;-57
2023/02/07 07:43:02;;;;;;;9.77;6.83;;;-0.80;99.90;;;;;;5071842;28;20204;-57
2023/02/07 07:45:28;;;;;;;11.00;6.60;;;-0.90;99.90;;;;;;5072474;28;20228;-57
2023/02/07 07:47:55;;;;;;;10.97;7.10;;;-1.20;99.90;;;;;;5072061;28;20205;-58
2023/02/07 07:50:22;;;;;;;16.90;9.23;;;-1.30;99.90;;;;;;5071899;28;20254;-56
2023/02/07 07:52:50;;;;;;;11.00;7.43;;;-1.30;99.90;;;;;;5071805;28;20281;-56
2023/02/07 07:55:16;;;;;;;9.90;7.40;;;-1.20;99.90;;;;;;5071641;28;20220;-56
2023/02/07 07:57:43;;;;;;;15.03;7.53;;;-1.10;99.90;;;;;;5071631;28;20212;-57
2023/02/07 08:00:11;;;;;;;11.73;8.40;;;-1.10;99.90;;;;;;5071261;28;20228;-59
2023/02/07 08:02:38;;;;;;;10.47;7.70;;;-1.00;99.90;;;;;;5071802;28;20672;-60
2023/02/07 08:05:05;;;;;;;13.27;8.13;;;-0.90;99.90;;;;;;5072020;28;20225;-59
2023/02/07 08:07:32;;;;;;;11.47;7.60;;;-0.70;99.90;;;;;;5071880;28;20220;-58
2023/02/07 08:10:00;;;;;;;13.27;8.40;;;-0.60;99.90;;;;;;5071520;28;20662;-59
2023/02/07 08:12:27;;;;;;;14.33;8.70;;;-0.60;99.90;;;;;;5072332;28;20284;-59
2023/02/07 08:14:54;;;;;;;12.83;7.70;;;-0.60;99.90;;;;;;5071908;28;20231;-61
2023/02/07 08:17:20;;;;;;;11.13;7.53;;;-0.50;99.90;;;;;;5071594;28;20213;-59
2023/02/07 08:19:47;;;;;;;10.17;7.33;;;-0.50;99.90;;;;;;5071178;28;20247;-60
2023/02/07 08:22:14;;;;;;;13.20;8.37;;;-0.50;99.90;;;;;;5071659;28;20201;-60
2023/02/07 08:24:41;;;;;;;11.17;8.20;;;-0.30;99.90;;;;;;5071929;28;20231;-60
2023/02/07 08:27:09;;;;;;;10.43;7.27;;;-0.30;99.90;;;;;;5071739;28;20295;-61
2023/02/07 08:29:36;;;;;;;10.97;7.23;;;-0.10;99.90;;;;;;5070580;28;20205;-60
2023/02/07 08:32:04;;;;;;;11.73;7.73;;;-0.20;99.90;;;;;;5071334;28;20213;-60
2023/02/07 08:34:36;;;;;;;12.93;8.07;;;-0.30;99.90;;;;;;5096506;22;20702;-68
2023/02/07 08:37:03;;;;;;;11.67;7.60;;;-0.40;99.90;;;;;;5063558;28;20213;-68
2023/02/07 08:39:30;;;;;;;10.83;7.10;;;-0.40;99.90;;;;;;5071455;28;20217;-68
2023/02/07 08:41:56;;;;;;;11.33;7.20;;;-0.30;99.90;;;;;;5072210;28;20687;-69
2023/02/07 08:44:25;;;;;;;15.27;7.47;;;-0.40;99.90;;;;;;5071853;28;20212;-68
2023/02/07 08:46:51;;;;;;;12.30;7.57;;;-0.30;99.90;;;;;;5071094;28;20208;-68
2023/02/07 08:49:18;;;;;;;12.90;8.50;;;-0.10;99.90;;;;;;5071304;28;20792;-68
2023/02/07 08:51:45;;;;;;;12.03;8.13;;;0.00;99.90;;;;;;5071905;28;20570;-68
2023/02/07 08:54:12;;;;;;;11.83;7.57;;;0.10;99.90;;;;;;5071100;28;20285;-68
2023/02/07 08:56:38;;;;;;;9.70;7.53;;;0.20;99.90;;;;;;5071292;28;20208;-68
2023/02/07 08:59:05;;;;;;;11.00;7.70;;;0.40;99.90;;;;;;5071072;28;20228;-66
2023/02/07 09:01:34;;;;;;;10.03;7.70;;;0.60;99.90;;;;;;5071047;28;20214;-69
2023/02/07 09:04:00;;;;;;;12.43;8.03;;;0.80;99.90;;;;;;5071109;28;20570;-69
2023/02/07 09:06:27;;;;;;;10.57;7.90;;;0.80;99.90;;;;;;5071137;28;20228;-69
2023/02/07 09:08:54;;;;;;;9.87;7.40;;;0.90;99.90;;;;;;5070801;28;20235;-69
2023/02/07 09:11:21;;;;;;;10.57;8.07;;;1.00;99.90;;;;;;5071232;28;20208;-69
2023/02/07 09:13:48;;;;;;;11.00;8.00;;;1.20;99.90;;;;;;5060130;28;20595;-67
2023/02/07 09:16:15;;;;;;;14.17;7.30;;;1.30;99.90;;;;;;5061701;28;20221;-67
2023/02/07 09:18:43;;;;;;;11.57;7.70;;;1.40;99.90;;;;;;5069860;28;20279;-68
2023/02/07 09:21:09;;;;;;;10.57;7.60;;;1.50;99.90;;;;;;5069729;28;20216;-67
2023/02/07 09:23:36;;;;;;;11.77;8.80;;;1.60;99.90;;;;;;5069600;28;20296;-68
2023/02/07 09:26:05;;;;;;;10.80;7.47;;;1.70;99.90;;;;;;5069502;28;20229;-67
2023/02/07 09:28:31;;;;;;;8.97;7.30;;;1.70;99.90;;;;;;5069257;28;20680;-68
2023/02/07 09:30:58;;;;;;;9.77;7.50;;;1.90;99.90;;;;;;5070088;28;20221;-67
2023/02/07 09:33:25;;;;;;;9.50;7.87;;;1.90;99.90;;;;;;5069691;28;20213;-67
2023/02/07 09:35:54;;;;;;;11.37;7.80;;;2.00;99.90;;;;;;5069262;28;20241;-67
2023/02/07 09:38:22;;;;;;;8.37;6.57;;;2.10;99.90;;;;;;5069184;28;20404;-66
2023/02/07 09:40:51;;;;;;;10.10;7.13;;;2.20;99.90;;;;;;5070552;28;20204;-66
2023/02/07 09:43:32;;;;;;;11.23;8.00;;;2.20;99.90;;;;;;5072576;28;20274;-65
2023/02/07 09:46:04;;;;;;;9.40;7.23;;;2.20;99.90;;;;;;5073066;28;20225;-65
2023/02/07 09:48:44;;;;;;;8.83;6.20;;;2.30;99.90;;;;;;5072907;28;20209;-65
2023/02/07 09:51:15;;;;;;;11.43;6.90;;;2.30;99.90;;;;;;5073050;28;20201;-66
2023/02/07 09:53:46;;;;;;;7.90;6.57;;;2.40;99.90;;;;;;5073523;28;20283;-65
2023/02/07 09:56:16;;;;;;;9.77;7.00;;;2.40;99.90;;;;;;5073198;28;20236;-65
2023/02/07 09:58:46;;;;;;;8.43;6.77;;;2.40;99.90;;;;;;5072648;28;20273;-65
2023/02/07 10:01:17;;;;;;;9.93;6.93;;;2.50;99.90;;;;;;5073856;28;20205;-65
2023/02/07 10:03:51;;;;;;;10.63;6.70;;;2.50;99.90;;;;;;5075526;28;20277;-65
2023/02/07 10:06:25;;;;;;;8.97;7.07;;;2.50;99.90;;;;;;5082984;28;20424;-65
2023/02/07 10:08:55;;;;;;;8.43;6.17;;;2.60;99.90;;;;;;5078844;28;20299;-65
2023/02/07 10:11:35;;;;;;;11.07;7.03;;;2.70;99.90;;;;;;5074885;28;20211;-65
2023/02/07 10:14:24;;;;;;;9.20;6.93;;;2.80;99.90;;;;;;5073052;28;20209;-65
2023/02/07 10:17:05;;;;;;;12.80;7.47;;;2.80;99.90;;;;;;5072964;28;20205;-65
2023/02/07 10:19:41;;;;;;;9.47;6.90;;;2.90;99.90;;;;;;5072486;28;20626;-65
2023/02/07 10:22:18;;;;;;;9.17;7.40;;;3.10;99.90;;;;;;5073227;28;20205;-65
2023/02/07 10:24:59;;;;;;;11.73;7.00;;;3.20;99.90;;;;;;5072968;28;20224;-66
2023/02/07 10:27:30;;;;;;;10.20;6.87;;;3.30;99.90;;;;;;5072321;28;20205;-65
2023/02/07 10:30:04;;;;;;;10.00;7.30;;;3.20;99.90;;;;;;5072215;28;20201;-65
2023/02/07 10:32:36;;;;;;;8.57;6.70;;;3.10;99.90;;;;;;5073118;28;20216;-65
2023/02/07 10:35:14;;;;;;;10.03;7.13;;;3.30;99.90;;;;;;5072388;28;20662;-66
2023/02/07 10:37:44;;;;;;;8.30;6.80;;;3.50;99.90;;;;;;5072244;28;20644;-66
2023/02/07 10:40:15;;;;;;;10.40;7.07;;;3.70;99.90;;;;;;5072442;28;20274;-66
2023/02/07 10:42:45;;;;;;;8.57;6.33;;;3.90;99.90;;;;;;5072732;28;20209;-66
2023/02/07 10:45:13;;;;;;;8.77;6.77;;;4.00;99.90;;;;;;5072260;28;20685;-64
2023/02/07 10:47:40;;;;;;;8.87;6.50;;;4.20;99.90;;;;;;5072205;28;20201;-65
2023/02/07 10:50:11;;;;;;;8.23;6.30;;;4.30;99.90;;;;;;5071984;28;20686;-65
2023/02/07 10:52:43;;;;;;;9.73;6.50;;;4.50;99.90;;;;;;5071096;28;20308;-65
2023/02/07 10:55:17;;;;;;;10.90;7.77;;;4.70;99.90;;;;;;5071774;28;20229;-66
2023/02/07 10:57:52;;;;;;;7.47;6.23;;;4.90;99.90;;;;;;5072040;28;20236;-66
2023/02/07 11:00:24;;;;;;;7.43;5.37;;;5.00;99.90;;;;;;5071692;28;20236;-66
2023/02/07 11:02:52;;;;;;;7.10;5.70;;;5.10;99.90;;;;;;5072048;28;20201;-66
2023/02/07 11:05:37;;;;;;;8.67;5.40;;;5.10;99.90;;;;;;5071231;28;20551;-65
2023/02/07 11:08:07;;;;;;;6.47;5.40;;;5.10;99.90;;;;;;5072086;28;20205;-67
2023/02/07 11:10:37;;;;;;;7.50;5.40;;;4.90;99.90;;;;;;5072359;28;20212;-65
2023/02/07 11:13:06;;;;;;;7.53;5.70;;;4.90;99.90;;;;;;5071710;28;20235;-66
2023/02/07 11:15:38;;;;;;;9.57;6.70;;;4.90;99.90;;;;;;5072081;28;20221;-67
2023/02/07 11:18:05;;;;;;;7.77;5.53;;;5.00;99.90;;;;;;5071200;28;20591;-67
2023/02/07 11:20:35;;;;;;;8.93;6.60;;;5.10;99.90;;;;;;5071255;28;20346;-67
2023/02/07 11:23:06;;;;;;;7.67;5.97;;;5.00;99.90;;;;;;5071126;28;20209;-67
2023/02/07 11:25:38;;;;;;;7.50;6.10;;;5.20;99.90;;;;;;5071089;28;20605;-68
2023/02/07 11:28:05;;;;;;;8.13;5.50;;;5.30;99.90;;;;;;5071421;28;20617;-68
2023/02/07 11:30:35;;;;;;;7.43;5.53;;;5.40;99.90;;;;;;5070783;28;20208;-68
2023/02/07 11:33:04;;;;;;;8.00;5.67;;;5.40;99.90;;;;;;5071505;28;20213;-68
2023/02/07 11:35:31;;;;;;;8.13;6.03;;;5.40;99.90;;;;;;5071169;28;20658;-68
2023/02/07 11:38:00;;;;;;;8.30;5.53;;;5.50;99.90;;;;;;5071374;28;20201;-68
2023/02/07 11:40:30;;;;;;;6.73;5.07;;;5.60;99.90;;;;;;5071083;28;20224;-68
2023/02/07 11:43:02;;;;;;;8.07;5.63;;;5.80;99.90;;;;;;5070692;28;20213;-67
2023/02/07 11:45:33;;;;;;;7.20;5.67;;;5.80;99.90;;;;;;5071190;28;20224;-69
2023/02/07 11:48:00;;;;;;;8.60;5.00;;;5.70;99.90;;;;;;5070911;28;20340;-68
2023/02/07 11:50:31;;;;;;;5.63;4.73;;;5.70;99.90;;;;;;5070877;28;20570;-70
2023/02/07 11:53:00;;;;;;;6.27;4.80;;;5.60;99.90;;;;;;5070975;28;20205;-68
2023/02/07 11:55:31;;;;;;;5.50;4.30;;;5.60;99.90;;;;;;5070489;28;20275;-68
2023/02/07 11:58:04;;;;;;;6.57;4.87;;;5.70;99.50;;;;;;5070975;28;20209;-68
2023/02/07 12:00:37;;;;;;;5.57;4.70;;;5.60;99.30;;;;;;5070491;28;20569;-68
2023/02/07 12:03:09;;;;;;;5.63;4.57;;;5.50;99.90;;;;;;5070856;28;20204;-68
2023/02/07 12:05:40;;;;;;;9.50;5.30;;;5.60;99.60;;;;;;5070530;28;20312;-68
2023/02/07 12:08:13;;;;;;;7.90;5.17;;;5.70;99.40;;;;;;5070861;28;20583;-68
2023/02/07 12:10:44;;;;;;;6.47;4.50;;;5.90;99.50;;;;;;5070870;28;20300;-69
2023/02/07 12:13:16;;;;;;;8.43;4.80;;;5.80;98.90;;;;;;5070682;28;20207;-68
2023/02/07 12:15:48;;;;;;;7.57;5.03;;;5.80;99.10;;;;;;5070963;28;20225;-68
2023/02/07 12:18:28;;;;;;;6.20;4.93;;;5.70;98.80;;;;;;5070208;28;20228;-67
2023/02/07 12:21:02;;;;;;;6.80;4.20;;;5.60;99.10;;;;;;5070810;28;20228;-68
2023/02/07 12:23:38;;;;;;;6.87;4.50;;;5.80;98.80;;;;;;5070956;28;20205;-68
2023/02/07 12:26:13;;;;;;;5.77;4.73;;;5.90;98.70;;;;;;5070362;28;20228;-67
2023/02/07 12:28:48;;;;;;;6.03;4.63;;;5.90;98.60;;;;;;5069940;28;20208;-67
2023/02/07 12:31:22;;;;;;;5.90;4.63;;;5.80;98.30;;;;;;5070729;28;20209;-67
2023/02/07 12:33:56;;;;;;;5.70;4.80;;;5.90;98.20;;;;;;5070437;28;20737;-67
2023/02/07 12:36:29;;;;;;;4.93;4.17;;;5.90;98.60;;;;;;5069933;28;20708;-67
2023/02/07 12:39:02;;;;;;;5.00;4.33;;;6.00;98.30;;;;;;5069993;28;20205;-69
2023/02/07 12:41:33;;;;;;;6.03;4.13;;;6.00;98.30;;;;;;5070414;28;20297;-67
2023/02/07 12:44:10;;;;;;;6.03;4.63;;;6.20;98.10;;;;;;5070761;28;20209;-67
2023/02/07 12:46:46;;;;;;;6.17;4.77;;;6.30;97.30;;;;;;5070746;28;20208;-68
2023/02/07 12:49:50;;;;;;;6.93;4.77;;;6.40;97.50;;;;;;5070537;28;20295;-65
2023/02/07 12:52:29;;;;;;;5.93;4.67;;;6.50;97.60;;;;;;5070321;28;20428;-66
2023/02/07 12:55:12;;;;;;;6.37;4.57;;;6.60;97.80;;;;;;5070686;28;20232;-66